Flight Track Log - Related Links

Times and Time Zones

All times are in EDT time to prevent confusion due to time zone crossing. See the KAL824 flight status page for this flight to view local times or setup timezone preferences in your user account.

Time Position Orientation Groundspeed Altitude Reporting Facility
EDT Latitude Longitude Course Direction KTS MPH feet Rate Location/Type
Thu 12:08:00 AM 44.4693 129.5418 199° South  Level Estimated
Thu 12:09:00 AM 44.4146 129.5147 199° South  Level Estimated
Thu 12:10:00 AM 44.3599 129.4877 199° South  Level Estimated
Thu 12:11:00 AM 44.3051 129.4607 199° South  Level Estimated
Thu 12:12:00 AM 44.2503 129.4338 199° South  Level Estimated
Thu 12:13:00 AM 44.1956 129.4069 199° South  Level Estimated
Thu 12:14:00 AM 44.1408 129.3800 199° South  Level Estimated
Thu 12:15:00 AM 44.0860 129.3533 199° South  Level Estimated
Thu 12:16:00 AM 44.0312 129.3265 199° South  Level Estimated
Thu 12:17:00 AM 43.9765 129.2998 199° South  Level Estimated
Thu 12:18:00 AM 43.9216 129.2732 199° South  Level Estimated
Thu 12:19:00 AM 43.8669 129.2466 199° South  Level Estimated
Thu 12:20:00 AM 43.8120 129.2200 199° South  Level Estimated
Thu 12:21:00 AM 43.7572 129.1935 199° South  Level Estimated
Thu 12:22:00 AM 43.7024 129.1671 199° South  Level Estimated
Thu 12:23:00 AM 43.6476 129.1407 199° South  Level Estimated
Thu 12:24:00 AM 43.5928 129.1143 199° South  Level Estimated
Thu 12:25:00 AM 43.5379 129.0880 199° South  Level Estimated
Thu 12:26:00 AM 43.4831 129.0618 199° South  Level Estimated
Thu 12:27:00 AM 43.4282 129.0356 199° South  Level Estimated
Thu 12:28:00 AM 43.3733 129.0094 199° South  Level Estimated
Thu 12:29:00 AM 43.3185 128.9833 199° South  Level Estimated
Thu 12:30:00 AM 43.2636 128.9572 199° South  Level Estimated
Thu 12:31:00 AM 43.2088 128.9312 199° South  Level Estimated
Thu 12:32:00 AM 43.1539 128.9052 199° South  Level Estimated
Thu 12:33:00 AM 43.0990 128.8793 199° South  Level Estimated
Thu 12:34:00 AM 43.0441 128.8534 199° South  Level Estimated
Thu 12:35:00 AM 42.9892 128.8276 199° South  Level Estimated
Thu 12:36:00 AM 42.9343 128.8018 199° South  Level Estimated
Thu 12:37:00 AM 42.8794 128.7761 199° South  Level Estimated
Thu 12:38:00 AM 42.8245 128.7504 199° South  Level Estimated
Thu 12:39:00 AM 42.7695 128.7247 199° South  Level Estimated
Thu 12:40:00 AM 42.7146 128.6991 199° South  Level Estimated
Thu 12:41:00 AM 42.6597 128.6736 199° South  Level Estimated
Thu 12:42:00 AM 42.6047 128.6481 199° South  Level Estimated
Thu 12:43:00 AM 42.5498 128.6226 199° South  Level Estimated
Thu 12:44:00 AM 42.4949 128.5972 199° South  Level Estimated
Thu 12:45:00 AM 42.4399 128.5718 199° South  Level Estimated
Thu 12:46:00 AM 42.3849 128.5465 199° South  Level Estimated
Thu 12:47:00 AM 42.3300 128.5212 199° South  Level Estimated
Thu 12:48:00 AM 42.2750 128.4959 199° South  Level Estimated
Thu 12:49:00 AM 42.2200 128.4707 199° South  Level Estimated
Thu 12:50:00 AM 42.1650 128.4456 199° South  Level Estimated
Thu 12:51:00 AM 42.1100 128.4205 199° South  Level Estimated
Thu 12:52:00 AM 42.0550 128.3954 199° South  Level Estimated
Thu 12:53:00 AM 42.0000 128.3704 199° South  Level Estimated
Thu 12:54:00 AM 41.9450 128.3454 199° South  Level Estimated
Thu 12:55:00 AM 41.8900 128.3204 199° South  Level Estimated
Thu 12:56:00 AM 41.8350 128.2955 199° South  Level Estimated
Thu 12:57:00 AM 41.7800 128.2707 199° South  Level Estimated
Thu 12:58:00 AM 41.7250 128.2459 199° South  Level Estimated
Thu 12:59:00 AM 41.6699 128.2211 199° South  Level Estimated
Thu 01:00:00 AM 41.6149 128.1964 199° South  Level Estimated
Thu 01:01:00 AM 41.5599 128.1717 199° South  Level Estimated
Thu 01:02:00 AM 41.5048 128.1470 199° South  Level Estimated
Thu 01:03:00 AM 41.4498 128.1224 199° South  Level Estimated
Thu 01:04:00 AM 41.3947 128.0979 199° South  Level Estimated
Thu 01:05:00 AM 41.3396 128.0734 198° South  Level Estimated
Thu 01:06:00 AM 41.2846 128.0489 198° South  Level Estimated
Thu 01:07:00 AM 41.2295 128.0244 198° South  Level Estimated
Thu 01:08:00 AM 41.1744 128.0000 198° South  Level Estimated
Thu 01:09:00 AM 41.1193 127.9757 198° South  Level Estimated
Thu 01:10:00 AM 41.0643 127.9514 198° South  Level Estimated
Thu 01:11:00 AM 41.0092 127.9271 198° South  Level Estimated
Thu 01:12:00 AM 40.9541 127.9029 198° South  Level Estimated
Thu 01:13:00 AM 40.8990 127.8787 198° South  Level Estimated
Thu 01:14:00 AM 40.8438 127.8546 198° South  Level Estimated
Thu 01:15:00 AM 40.7887 127.8304 198° South  Level Estimated
Thu 01:16:00 AM 40.7336 127.8064 198° South  Level Estimated
Thu 01:17:00 AM 40.6785 127.7823 198° South  Level Estimated
Thu 01:18:00 AM 40.6234 127.7583 198° South  Level Estimated
Thu 01:19:00 AM 40.5682 127.7344 198° South  Level Estimated
Thu 01:20:00 AM 40.5131 127.7105 198° South  Level Estimated
Thu 01:21:00 AM 40.4580 127.6866 198° South  Level Estimated
Thu 01:22:00 AM 40.4028 127.6628 198° South  Level Estimated
Thu 01:23:00 AM 40.3477 127.6390 198° South  Level Estimated
Thu 01:24:00 AM 40.2925 127.6152 198° South  Level Estimated
Thu 01:25:00 AM 40.2373 127.5915 198° South  Level Estimated
Thu 01:26:00 AM 40.1822 127.5678 198° South  Level Estimated
Thu 01:27:00 AM 40.1270 127.5442 198° South  Level Estimated
Thu 01:28:00 AM 40.0718 127.5206 198° South  Level Estimated
Thu 01:29:00 AM 40.0166 127.4970 198° South  Level Estimated
Thu 01:30:00 AM 39.9614 127.4735 198° South  Level Estimated
Thu 01:31:00 AM 39.9063 127.4500 198° South  Level Estimated
Thu 01:32:00 AM 39.8511 127.4266 198° South  Level Estimated
Thu 01:33:00 AM 39.7959 127.4032 198° South  Level Estimated
Thu 01:34:00 AM 39.7407 127.3798 198° South  Level Estimated
Thu 01:35:00 AM 39.6854 127.3564 198° South  Level Estimated
Thu 01:36:00 AM 39.6302 127.3331 198° South  Level Estimated
Thu 01:37:00 AM 39.5750 127.3099 198° South  Level Estimated
Thu 01:38:00 AM 39.5198 127.2867 198° South  Level Estimated
Thu 01:39:00 AM 39.4645 127.2635 198° South  Level Estimated
Thu 01:40:00 AM 39.4093 127.2403 198° South  Level Estimated
Thu 01:41:00 AM 39.3541 127.2172 198° South  Level Estimated
Thu 01:42:00 AM 39.2988 127.1941 198° South  Level Estimated
Thu 01:43:00 AM 39.2436 127.1711 198° South  Level Estimated
Thu 01:44:00 AM 39.1883 127.1481 198° South  Level Estimated
Thu 01:45:00 AM 39.1331 127.1251 198° South  Level Estimated
Thu 01:46:00 AM 39.0778 127.1022 198° South  Level Estimated
Thu 01:47:00 AM 39.0225 127.0793 198° South  Level Estimated
Thu 01:48:00 AM 38.9673 127.0564 198° South  Level Estimated
Thu 01:49:00 AM 38.9120 127.0336 198° South  Level Estimated
Thu 01:50:00 AM 38.8567 127.0108 198° South  Level Estimated
Thu 01:51:00 AM 38.8014 126.9880 198° South  Level Estimated
Thu 01:52:00 AM 38.7461 126.9653 198° South  Level Estimated
Thu 01:53:00 AM 38.6908 126.9426 198° South  Level Estimated
Thu 01:54:00 AM 38.6356 126.9200 198° South  Level Estimated
Thu 01:55:00 AM 38.5802 126.8973 198° South  Level Estimated
Thu 01:56:00 AM 38.5249 126.8748 198° South  Level Estimated
Thu 01:57:00 AM 38.4696 126.8522 198° South  Level Estimated
Thu 01:58:00 AM 38.4143 126.8297 198° South  Level Estimated
Thu 01:59:00 AM 38.3590 126.8072 198° South  Level Estimated
Thu 02:00:00 AM 38.3037 126.7848 198° South  Level Estimated
Thu 02:01:00 AM 38.2483 126.7624 198° South  Level Estimated
Thu 02:02:00 AM 38.1930 126.7400 198° South  Level Estimated
Thu 02:03:00 AM 38.1377 126.7177 198° South  Level Estimated
Thu 02:03:36 AM 37.1750 126.3380 198° South 304 350 10,200  Level FlightAware ADS-B
Thu 02:04:00 AM 38.0823 126.6954 198° South  Level Estimated
Thu 02:04:07 AM 37.1870 126.3900 74° East 295 339 9,800  Level FlightAware ADS-B
Thu 02:04:32 AM 37.2060 126.4260 56° Northeast 297 342 9,400 -643 Descending FlightAware ADS-B
Thu 02:05:03 AM 37.2300 126.4640 52° Northeast 289 333 9,200 -261 Descending FlightAware ADS-B
Thu 02:05:18 AM 37.2510 126.4750 23° Northeast 265 305 9,200  Level FlightAware ADS-B
Thu 02:05:28 AM 37.2630 126.4750 360° North 256 295 9,200  Level FlightAware ADS-B
Thu 02:05:43 AM 37.2770 126.4680 338° Northwest 227 261 9,200  Level FlightAware ADS-B
Thu 02:06:08 AM 37.2960 126.4530 328° Northwest 227 261 9,200  Level FlightAware ADS-B
Thu 02:06:32 AM 37.3140 126.4390 328° Northwest 227 261 9,200  Level FlightAware ADS-B
Thu 02:06:56 AM 37.3320 126.4250 328° Northwest 227 261 9,200 -1,607 Level FlightAware ADS-B
Thu 02:07:28 AM 37.3560 126.3830 306° West 236 272 7,700 -2,032 Descending FlightAware ADS-B
Thu 02:07:58 AM 37.3840 126.3580 325° Northwest 229 264 7,100 -1,102 Descending FlightAware ADS-B
Thu 02:08:17 AM 37.3980 126.3440 322° Northwest 229 264 6,800 -947 Descending FlightAware ADS-B
Thu 02:11:00 AM 37.4691 126.4505 50° Northeast  Level Estimated
Thu 02:12:00 AM 37.4691 126.4505 335° Northwest  Level Estimated
Thu 02:13:00 AM 37.4691 126.4505 335° Northwest  Level Estimated
Thu 02:14:00 AM 37.4691 126.4505 335° Northwest  Level Estimated
Thu 02:15:00 AM 37.4691 126.4505 335° Northwest  Level Estimated
Thu 02:16:00 AM 37.4691 126.4505 335° Northwest  Level Estimated

Login

Don't have an account? Register now (free) for customized features, flight alerts, and more!